createdAt,value
2023-01-17T00:02:24.300Z,4.58
2023-01-17T00:05:20.851Z,4.57
2023-01-17T00:08:20.713Z,4.63
2023-01-17T00:10:58.392Z,4.50
2023-01-17T00:13:42.655Z,4.54
2023-01-17T00:16:20.944Z,4.61
2023-01-17T00:19:20.780Z,4.65
2023-01-17T00:22:14.695Z,4.64
2023-01-17T00:25:05.505Z,4.63
2023-01-17T00:27:49.031Z,4.55
2023-01-17T00:30:24.399Z,4.52
2023-01-17T00:33:00.036Z,4.62
2023-01-17T00:35:32.589Z,4.72
2023-01-17T00:38:15.229Z,4.61
2023-01-17T00:40:56.382Z,4.63
2023-01-17T00:43:58.010Z,4.74
2023-01-17T00:46:49.711Z,4.70
2023-01-17T00:49:51.445Z,4.70
2023-01-17T00:52:49.447Z,4.70
2023-01-17T00:55:49.651Z,4.70
2023-01-17T00:58:43.165Z,4.77
2023-01-17T01:01:37.177Z,4.83
2023-01-17T01:04:31.289Z,4.80
2023-01-17T01:07:37.598Z,4.75
2023-01-17T01:10:34.650Z,4.80
2023-01-17T01:13:19.985Z,4.81
2023-01-17T01:16:11.033Z,4.80
2023-01-17T01:19:11.448Z,4.73
2023-01-17T01:22:05.348Z,4.70
2023-01-17T01:25:09.990Z,4.71
2023-01-17T01:28:04.182Z,4.68
2023-01-17T01:31:00.675Z,4.71
2023-01-17T01:33:45.512Z,4.77
2023-01-17T01:36:36.739Z,4.73
2023-01-17T01:39:32.399Z,4.78
2023-01-17T01:42:36.990Z,4.71
2023-01-17T01:45:49.864Z,4.76
2023-01-17T01:48:38.434Z,4.79
2023-01-17T01:51:32.224Z,4.86
2023-01-17T01:54:21.025Z,4.78
2023-01-17T01:57:11.012Z,4.76
2023-01-17T02:00:00.199Z,4.71
2023-01-17T02:02:39.547Z,4.82
2023-01-17T02:05:16.240Z,4.84
2023-01-17T02:08:00.379Z,4.80
2023-01-17T02:10:44.818Z,4.78
2023-01-17T02:13:28.766Z,4.85
2023-01-17T02:16:35.094Z,4.82
2023-01-17T02:19:32.089Z,4.79
2023-01-17T02:22:46.387Z,4.78
2023-01-17T02:25:50.734Z,4.70
2023-01-17T02:28:49.765Z,4.68
2023-01-17T02:31:59.529Z,4.69
2023-01-17T02:35:03.313Z,4.73
2023-01-17T02:38:06.003Z,4.57
2023-01-17T02:40:48.979Z,4.68
2023-01-17T02:43:35.993Z,4.67
2023-01-17T02:46:09.911Z,4.74
2023-01-17T02:48:54.565Z,4.70
2023-01-17T02:52:06.324Z,4.83
2023-01-17T02:55:01.403Z,4.88
2023-01-17T02:57:58.671Z,4.76
2023-01-17T03:00:45.931Z,4.81
2023-01-17T03:03:51.418Z,4.83
2023-01-17T03:06:43.278Z,4.89
2023-01-17T03:09:25.220Z,4.67
2023-01-17T03:12:03.529Z,4.68
2023-01-17T03:14:47.755Z,4.71
2023-01-17T03:17:31.582Z,4.79
2023-01-17T03:20:36.168Z,4.65
2023-01-17T03:23:31.876Z,4.73
2023-01-17T03:26:07.989Z,4.72
2023-01-17T03:28:48.834Z,4.77
2023-01-17T03:31:29.099Z,4.72
2023-01-17T03:34:15.374Z,4.64
2023-01-17T03:36:55.678Z,4.64
2023-01-17T03:39:33.323Z,4.73
2023-01-17T03:42:14.013Z,4.81
2023-01-17T03:44:54.724Z,4.74
2023-01-17T03:47:37.535Z,4.71
2023-01-17T03:50:15.671Z,4.76
2023-01-17T03:53:04.033Z,4.82
2023-01-17T03:55:39.219Z,4.81
2023-01-17T03:58:27.859Z,4.92
2023-01-17T04:01:05.531Z,4.84
2023-01-17T04:03:46.885Z,4.88
2023-01-17T04:06:45.385Z,4.88
2023-01-17T04:09:25.762Z,4.82
2023-01-17T04:12:15.134Z,4.87
2023-01-17T04:14:55.302Z,4.72
2023-01-17T04:17:45.681Z,4.66
2023-01-17T04:20:38.488Z,4.77
2023-01-17T04:23:17.062Z,4.77
2023-01-17T04:26:03.883Z,4.90
2023-01-17T04:28:47.605Z,4.78
2023-01-17T04:31:28.842Z,4.70
2023-01-17T04:34:15.285Z,4.80
2023-01-17T04:36:53.651Z,4.78
2023-01-17T04:39:31.296Z,4.87
2023-01-17T04:42:15.461Z,4.80
2023-01-17T04:44:59.036Z,4.74
2023-01-17T04:47:50.213Z,4.78
2023-01-17T04:50:28.853Z,4.91
2023-01-17T04:53:14.693Z,4.92
2023-01-17T04:56:06.689Z,4.91
2023-01-17T04:58:42.945Z,4.84
2023-01-17T05:01:23.353Z,4.79
2023-01-17T05:04:05.114Z,4.75
2023-01-17T05:06:38.149Z,4.83
2023-01-17T05:09:13.001Z,4.83
2023-01-17T05:11:56.218Z,4.76
2023-01-17T05:14:42.435Z,4.78
2023-01-17T05:17:22.766Z,4.73
2023-01-17T05:20:09.829Z,4.82
2023-01-17T05:22:47.620Z,4.81
2023-01-17T05:25:22.823Z,4.71
2023-01-17T05:28:04.032Z,4.79
2023-01-17T05:30:38.355Z,4.70
2023-01-17T05:33:09.520Z,4.74
2023-01-17T05:35:52.460Z,4.81
2023-01-17T05:38:30.724Z,4.80
2023-01-17T05:41:08.844Z,4.92
2023-01-17T05:43:46.465Z,5.00
2023-01-17T05:46:18.120Z,4.92
2023-01-17T05:48:53.275Z,4.95
2023-01-17T05:51:33.577Z,4.99
2023-01-17T05:54:12.710Z,4.85
2023-01-17T05:56:56.129Z,4.90
2023-01-17T05:59:37.419Z,4.98
2023-01-17T06:02:15.948Z,5.00
2023-01-17T06:04:52.219Z,5.00
2023-01-17T06:07:38.873Z,4.97
2023-01-17T06:10:14.414Z,4.95
2023-01-17T06:13:12.373Z,4.94
2023-01-17T06:15:51.201Z,4.92
2023-01-17T06:18:42.978Z,4.92
2023-01-17T06:21:26.732Z,4.88
2023-01-17T06:23:57.996Z,4.84
2023-01-17T06:26:37.882Z,4.95
2023-01-17T06:29:13.810Z,4.97
2023-01-17T06:32:02.939Z,5.02
2023-01-17T06:34:38.431Z,4.96
2023-01-17T06:37:24.376Z,5.03
2023-01-17T06:40:05.011Z,4.94
2023-01-17T06:42:42.390Z,4.92
2023-01-17T06:45:22.519Z,4.86
2023-01-17T06:48:06.214Z,4.85
2023-01-17T06:53:44.839Z,4.87
2023-01-17T06:56:25.045Z,4.89
2023-01-17T06:59:05.872Z,4.88
2023-01-17T07:01:46.187Z,5.04
2023-01-17T07:04:24.272Z,4.96
2023-01-17T07:06:59.032Z,4.90
2023-01-17T07:09:42.288Z,4.79
2023-01-17T07:12:23.243Z,4.81
2023-01-17T07:15:03.709Z,4.79
2023-01-17T07:17:46.305Z,4.75
2023-01-17T07:20:21.605Z,4.71
2023-01-17T07:23:06.772Z,4.88
2023-01-17T07:25:44.913Z,4.86
2023-01-17T07:28:22.835Z,4.76
2023-01-17T07:31:07.018Z,4.84
2023-01-17T07:33:47.791Z,4.85
2023-01-17T07:36:22.871Z,4.87
2023-01-17T07:39:00.998Z,4.94
2023-01-17T07:41:33.130Z,5.00
2023-01-17T07:44:24.861Z,4.97
2023-01-17T07:47:02.616Z,4.98
2023-01-17T07:49:40.822Z,5.04
2023-01-17T07:52:13.113Z,4.87
2023-01-17T07:54:53.746Z,4.76
2023-01-17T07:57:42.499Z,4.70
2023-01-17T08:00:21.103Z,4.62
2023-01-17T08:03:06.823Z,4.61
2023-01-17T08:05:55.708Z,4.64
2023-01-17T08:08:42.072Z,4.63
2023-01-17T08:11:26.074Z,4.58
2023-01-17T08:14:19.375Z,4.60
2023-01-17T08:17:10.078Z,4.53
2023-01-17T08:19:52.247Z,4.53
2023-01-17T08:22:41.215Z,4.57
2023-01-17T08:25:22.154Z,4.55
2023-01-17T08:28:00.300Z,4.59
2023-01-17T08:30:44.053Z,4.69
2023-01-17T08:33:28.834Z,4.65
2023-01-17T08:36:12.738Z,4.77
2023-01-17T08:38:51.055Z,4.80
2023-01-17T08:41:37.644Z,4.76
2023-01-17T08:44:09.739Z,4.72
2023-01-17T08:46:46.983Z,4.74
2023-01-17T08:49:28.826Z,4.96
2023-01-17T08:52:07.728Z,4.92
2023-01-17T08:54:49.056Z,4.77
2023-01-17T08:57:29.212Z,4.85
2023-01-17T09:00:04.846Z,4.75
2023-01-17T09:02:43.735Z,4.78
2023-01-17T09:05:24.925Z,4.77
2023-01-17T09:08:08.736Z,4.84
2023-01-17T09:10:49.855Z,4.92
2023-01-17T09:13:36.602Z,4.92
2023-01-17T09:16:21.967Z,5.00
2023-01-17T09:19:04.147Z,5.03
2023-01-17T09:21:52.077Z,5.06
2023-01-17T09:24:27.109Z,5.01
2023-01-17T09:27:08.156Z,5.00
2023-01-17T09:29:46.557Z,5.03
2023-01-17T09:32:35.400Z,5.15
2023-01-17T09:35:13.847Z,5.23
2023-01-17T09:37:49.021Z,5.24
2023-01-17T09:40:28.662Z,5.31
2023-01-17T09:43:33.535Z,5.36
2023-01-17T09:46:39.032Z,5.28
2023-01-17T09:49:31.879Z,5.29
2023-01-17T09:52:14.491Z,5.42
2023-01-17T09:54:54.840Z,5.50
2023-01-17T09:58:02.147Z,5.69
2023-01-17T10:00:47.954Z,5.68
2023-01-17T10:03:57.323Z,5.74
2023-01-17T10:06:54.696Z,5.78
2023-01-17T10:09:45.709Z,5.86
2023-01-17T10:12:39.148Z,5.83
2023-01-17T10:15:45.904Z,5.90
2023-01-17T10:18:48.858Z,5.98
2023-01-17T10:21:35.709Z,6.04
2023-01-17T10:24:39.094Z,5.92
2023-01-17T10:27:32.967Z,6.04
2023-01-17T10:30:48.993Z,6.03
2023-01-17T10:33:58.505Z,6.04
2023-01-17T10:36:43.333Z,6.07
2023-01-17T10:39:32.107Z,6.18
2023-01-17T10:42:54.093Z,6.16
2023-01-17T10:45:43.917Z,6.28
2023-01-17T10:48:42.407Z,6.24
2023-01-17T10:51:43.821Z,6.22
2023-01-17T10:54:30.263Z,6.15
2023-01-17T10:57:16.648Z,6.26
2023-01-17T11:00:00.407Z,6.28
2023-01-17T11:02:43.236Z,6.31
2023-01-17T11:05:40.774Z,6.37
2023-01-17T11:08:21.817Z,6.47
2023-01-17T11:11:03.775Z,6.37
2023-01-17T11:13:41.917Z,6.50
2023-01-17T11:16:32.995Z,6.39
2023-01-17T11:19:20.450Z,6.51
2023-01-17T11:22:05.142Z,6.64
2023-01-17T11:24:51.293Z,6.57
2023-01-17T11:27:41.011Z,6.55
2023-01-17T11:30:26.310Z,6.74
2023-01-17T11:33:11.857Z,6.83
2023-01-17T11:35:58.772Z,6.77
2023-01-17T11:38:39.544Z,6.79
2023-01-17T11:41:26.015Z,7.02
2023-01-17T11:44:03.927Z,7.08
2023-01-17T11:46:39.072Z,7.11
2023-01-17T11:49:37.935Z,7.27
2023-01-17T11:52:39.257Z,7.36
2023-01-17T11:55:23.204Z,7.09
2023-01-17T11:58:05.624Z,7.31
2023-01-17T12:00:57.330Z,7.48
2023-01-17T12:03:48.216Z,7.45
2023-01-17T12:06:57.104Z,7.48
2023-01-17T12:09:48.451Z,7.42
2023-01-17T12:12:54.163Z,7.63
2023-01-17T12:15:35.490Z,7.48
2023-01-17T12:18:33.887Z,7.47
2023-01-17T12:21:25.361Z,7.26
2023-01-17T12:24:45.301Z,7.10
2023-01-17T12:28:08.500Z,7.02
2023-01-17T12:31:08.978Z,7.10
2023-01-17T12:33:58.306Z,7.11
2023-01-17T12:36:59.976Z,7.09
2023-01-17T12:39:46.771Z,7.16
2023-01-17T12:42:35.437Z,7.23
2023-01-17T12:46:03.276Z,7.14
2023-01-17T12:48:47.591Z,7.23
2023-01-17T12:51:40.747Z,7.19
2023-01-17T12:54:31.680Z,7.18
2023-01-17T12:57:14.006Z,7.16
2023-01-17T13:00:07.864Z,7.19
2023-01-17T13:03:11.010Z,7.20
2023-01-17T13:05:53.560Z,7.31
2023-01-17T13:08:39.109Z,7.22
2023-01-17T13:11:46.679Z,7.22
2023-01-17T13:14:24.672Z,7.32
2023-01-17T13:17:56.316Z,7.24
2023-01-17T13:20:59.038Z,7.20
2023-01-17T13:24:06.622Z,7.29
2023-01-17T13:26:56.986Z,7.20
2023-01-17T13:29:59.270Z,7.16
2023-01-17T13:32:46.249Z,7.10
2023-01-17T13:35:37.231Z,7.00
2023-01-17T13:38:25.327Z,6.98
2023-01-17T13:41:19.843Z,6.93
2023-01-17T13:44:14.307Z,6.91
2023-01-17T13:47:04.272Z,6.88
2023-01-17T13:49:59.887Z,6.77
2023-01-17T13:52:41.756Z,6.65
2023-01-17T13:55:47.175Z,6.62
2023-01-17T13:59:12.131Z,6.59
2023-01-17T14:02:04.841Z,6.40
2023-01-17T14:05:07.161Z,6.42
2023-01-17T14:07:57.873Z,6.40
2023-01-17T14:10:49.532Z,6.25
2023-01-17T14:13:38.407Z,6.32
2023-01-17T14:16:29.139Z,6.31
2023-01-17T14:19:07.919Z,6.35
2023-01-17T14:21:40.205Z,6.24
2023-01-17T14:24:23.775Z,6.25
2023-01-17T14:27:15.853Z,6.17
2023-01-17T14:30:00.283Z,6.07
2023-01-17T14:32:39.689Z,6.09
2023-01-17T14:35:35.430Z,6.06
2023-01-17T14:38:31.647Z,6.05
2023-01-17T14:41:36.437Z,5.95
2023-01-17T14:44:20.215Z,5.96
2023-01-17T14:46:59.864Z,5.93
2023-01-17T14:49:35.607Z,5.89
2023-01-17T14:52:19.216Z,5.90
2023-01-17T14:55:17.619Z,5.80
2023-01-17T14:57:58.529Z,5.84
2023-01-17T15:00:43.402Z,5.77
2023-01-17T15:03:22.246Z,5.67
2023-01-17T15:06:04.856Z,5.71
2023-01-17T15:08:40.391Z,5.64
2023-01-17T15:11:38.835Z,5.73
2023-01-17T15:14:23.034Z,5.67
2023-01-17T15:17:17.896Z,5.65
2023-01-17T15:20:14.060Z,5.66
2023-01-17T15:22:54.749Z,5.65
2023-01-17T15:25:36.521Z,5.56
2023-01-17T15:28:18.716Z,5.61
2023-01-17T15:31:24.190Z,5.57
2023-01-17T15:34:10.964Z,5.45
2023-01-17T15:36:52.048Z,5.43
2023-01-17T15:39:31.201Z,5.50
2023-01-17T15:42:21.587Z,5.42
2023-01-17T15:45:05.210Z,5.46
2023-01-17T15:47:44.398Z,5.42
2023-01-17T15:50:32.904Z,5.28
2023-01-17T15:53:26.155Z,5.42
2023-01-17T15:56:24.048Z,5.38
2023-01-17T15:59:48.851Z,5.34
2023-01-17T16:02:49.030Z,5.39
2023-01-17T16:05:30.991Z,5.38
2023-01-17T16:08:23.986Z,5.35
2023-01-17T16:11:06.251Z,5.35
2023-01-17T16:13:47.817Z,5.36
2023-01-17T16:16:29.952Z,5.46
2023-01-17T16:19:06.237Z,5.35
2023-01-17T16:21:53.052Z,5.48
2023-01-17T16:24:28.814Z,5.44
2023-01-17T16:27:20.996Z,5.31
2023-01-17T16:29:56.605Z,5.30
2023-01-17T16:32:32.413Z,5.31
2023-01-17T16:35:19.696Z,5.30
2023-01-17T16:37:59.508Z,5.34
2023-01-17T16:40:40.612Z,5.33
2023-01-17T16:43:19.880Z,5.31
2023-01-17T16:46:03.539Z,5.29
2023-01-17T16:48:48.809Z,5.34
2023-01-17T16:51:37.410Z,5.31
2023-01-17T16:54:13.078Z,5.30
2023-01-17T16:56:51.239Z,5.32
2023-01-17T16:59:45.914Z,5.35
2023-01-17T17:02:35.657Z,5.25
2023-01-17T17:05:19.827Z,5.25
2023-01-17T17:07:57.680Z,5.21
2023-01-17T17:10:44.604Z,5.07
2023-01-17T17:13:31.273Z,5.03
2023-01-17T17:16:13.896Z,5.02
2023-01-17T17:18:56.777Z,5.06
2023-01-17T17:21:45.491Z,4.95
2023-01-17T17:24:21.078Z,4.91
2023-01-17T17:26:58.679Z,4.79
2023-01-17T17:29:36.264Z,4.84
2023-01-17T17:32:23.508Z,4.80
2023-01-17T17:35:00.850Z,4.78
2023-01-17T17:37:38.015Z,4.74
2023-01-17T17:40:21.222Z,4.68
2023-01-17T17:43:07.561Z,4.73
2023-01-17T17:45:48.578Z,4.73
2023-01-17T17:48:26.195Z,4.75
2023-01-17T17:51:01.545Z,4.69
2023-01-17T17:53:36.752Z,4.66
2023-01-17T17:56:10.859Z,4.65
2023-01-17T17:58:51.799Z,4.72
2023-01-17T18:01:26.221Z,4.64
2023-01-17T18:04:07.580Z,4.70
2023-01-17T18:06:50.991Z,4.68
2023-01-17T18:09:29.706Z,4.74
2023-01-17T18:12:11.479Z,4.73
2023-01-17T18:14:49.501Z,4.69
2023-01-17T18:17:33.757Z,4.69
2023-01-17T18:20:11.506Z,4.74
2023-01-17T18:22:57.177Z,4.66
2023-01-17T18:25:36.386Z,4.71
2023-01-17T18:28:11.995Z,4.73
2023-01-17T18:30:57.261Z,4.71
2023-01-17T18:33:34.787Z,4.66
2023-01-17T18:36:24.846Z,4.62
2023-01-17T18:39:10.277Z,4.53
2023-01-17T18:41:49.205Z,4.50
2023-01-17T18:44:33.990Z,4.57
2023-01-17T18:47:15.216Z,4.66
2023-01-17T18:50:10.011Z,4.66
2023-01-17T18:52:51.119Z,4.72
2023-01-17T18:55:26.297Z,4.66
2023-01-17T18:58:14.680Z,4.64
2023-01-17T19:00:58.602Z,4.55
2023-01-17T19:03:42.215Z,4.45
2023-01-17T19:06:21.947Z,4.42
2023-01-17T19:09:03.786Z,4.44
2023-01-17T19:11:43.107Z,4.38
2023-01-17T19:14:20.881Z,4.44
2023-01-17T19:17:01.312Z,4.47
2023-01-17T19:19:51.295Z,4.42
2023-01-17T19:22:33.485Z,4.36
2023-01-17T19:25:08.869Z,4.28
2023-01-17T19:27:58.273Z,4.24
2023-01-17T19:30:42.287Z,4.24
2023-01-17T19:33:18.008Z,4.18
2023-01-17T19:36:06.723Z,4.17
2023-01-17T19:39:03.860Z,4.04
2023-01-17T19:41:54.347Z,3.95
2023-01-17T19:44:52.031Z,4.00
2023-01-17T19:47:49.044Z,3.92
2023-01-17T19:50:29.134Z,3.99
2023-01-17T19:53:13.170Z,3.88
2023-01-17T19:55:54.829Z,3.91
2023-01-17T19:58:38.141Z,3.83
2023-01-17T20:01:28.092Z,3.66
2023-01-17T20:04:09.924Z,3.63
2023-01-17T20:06:56.824Z,3.65
2023-01-17T20:09:46.705Z,3.58
2023-01-17T20:12:33.605Z,3.48
2023-01-17T20:15:12.705Z,3.29
2023-01-17T20:18:02.748Z,3.14
2023-01-17T20:20:56.323Z,2.87
2023-01-17T20:23:50.715Z,2.94
2023-01-17T20:26:44.811Z,2.93
2023-01-17T20:29:31.556Z,2.93
2023-01-17T20:32:17.336Z,2.88
2023-01-17T20:35:09.683Z,2.80
2023-01-17T20:37:57.222Z,2.86
2023-01-17T20:40:35.108Z,2.88
2023-01-17T20:43:28.743Z,3.00
2023-01-17T20:46:08.953Z,2.93
2023-01-17T20:49:01.223Z,2.92
2023-01-17T20:51:42.041Z,2.80
2023-01-17T20:54:15.583Z,2.81
2023-01-17T20:57:03.143Z,2.78
2023-01-17T20:59:51.887Z,2.80
2023-01-17T21:02:32.840Z,2.62
2023-01-17T21:05:13.815Z,2.58
2023-01-17T21:08:03.937Z,2.68
2023-01-17T21:10:50.751Z,2.78
2023-01-17T21:13:41.747Z,2.72
2023-01-17T21:16:31.958Z,2.75
2023-01-17T21:19:27.686Z,2.66
2023-01-17T21:22:19.020Z,2.71
2023-01-17T21:25:03.353Z,2.63
2023-01-17T21:27:47.152Z,2.52
2023-01-17T21:30:19.019Z,2.55
2023-01-17T21:33:14.358Z,2.60
2023-01-17T21:35:55.502Z,2.71
2023-01-17T21:38:36.183Z,2.65
2023-01-17T21:41:22.466Z,2.72
2023-01-17T21:44:27.442Z,2.70
2023-01-17T21:47:03.005Z,2.62
2023-01-17T21:49:54.318Z,2.57
2023-01-17T21:52:45.263Z,2.54
2023-01-17T21:55:40.006Z,2.64
2023-01-17T21:58:38.674Z,2.60
2023-01-17T22:01:29.508Z,2.86
2023-01-17T22:04:16.114Z,2.88
2023-01-17T22:06:55.591Z,2.85
2023-01-17T22:09:49.858Z,2.97
2023-01-17T22:12:46.061Z,2.87
2023-01-17T22:15:34.083Z,2.86
2023-01-17T22:18:22.776Z,2.94
2023-01-17T22:21:14.618Z,3.11
2023-01-17T22:24:01.983Z,3.14
2023-01-17T22:26:48.190Z,2.91
2023-01-17T22:29:33.550Z,2.89
2023-01-17T22:32:15.799Z,3.02
2023-01-17T22:34:58.770Z,3.11
2023-01-17T22:37:43.799Z,3.12
2023-01-17T22:40:30.029Z,2.83
2023-01-17T22:43:11.739Z,2.86
2023-01-17T22:46:09.427Z,2.94
2023-01-17T22:48:58.723Z,2.89
2023-01-17T22:51:35.466Z,3.00
2023-01-17T22:54:28.313Z,2.96
2023-01-17T22:57:09.124Z,2.94
2023-01-17T22:59:57.606Z,3.04
2023-01-17T23:02:42.764Z,2.87
2023-01-17T23:05:22.805Z,2.72
2023-01-17T23:08:20.808Z,2.89
2023-01-17T23:11:16.937Z,2.76
2023-01-17T23:14:08.016Z,2.67
2023-01-17T23:17:10.630Z,2.72
2023-01-17T23:19:59.987Z,2.70
2023-01-17T23:22:44.243Z,2.75
2023-01-17T23:25:38.465Z,2.85
2023-01-17T23:28:24.539Z,2.79
2023-01-17T23:31:11.841Z,2.79
2023-01-17T23:34:00.637Z,2.87
2023-01-17T23:36:47.301Z,2.63
2023-01-17T23:39:35.915Z,2.49
2023-01-17T23:42:34.769Z,2.53
2023-01-17T23:45:14.188Z,2.50
2023-01-17T23:48:06.067Z,2.67
2023-01-17T23:50:46.332Z,2.65
2023-01-17T23:53:39.703Z,2.63
2023-01-17T23:56:36.362Z,2.57
2023-01-17T23:59:22.693Z,2.71
